sensor_id;sensor_type;location;lat;lon;timestamp;temperature;humidity
26954;DHT22;14508;50.924;11.600;2023-02-04T00:00:28;6.30;99.90
26954;DHT22;14508;50.924;11.600;2023-02-04T00:02:57;6.30;99.90
26954;DHT22;14508;50.924;11.600;2023-02-04T00:05:25;6.40;99.90
26954;DHT22;14508;50.924;11.600;2023-02-04T00:07:53;6.40;99.90
26954;DHT22;14508;50.924;11.600;2023-02-04T00:10:20;6.40;99.90
26954;DHT22;14508;50.924;11.600;2023-02-04T00:12:48;6.40;99.90
26954;DHT22;14508;50.924;11.600;2023-02-04T00:15:16;6.30;99.90
26954;DHT22;14508;50.924;11.600;2023-02-04T00:17:45;6.30;99.90
26954;DHT22;14508;50.924;11.600;2023-02-04T00:20:13;6.20;99.90
26954;DHT22;14508;50.924;11.600;2023-02-04T00:22:41;6.20;99.90
26954;DHT22;14508;50.924;11.600;2023-02-04T00:25:09;6.30;99.90
26954;DHT22;14508;50.924;11.600;2023-02-04T00:27:37;6.20;99.90
26954;DHT22;14508;50.924;11.600;2023-02-04T00:30:07;6.20;99.90
26954;DHT22;14508;50.924;11.600;2023-02-04T00:32:35;6.20;99.90
26954;DHT22;14508;50.924;11.600;2023-02-04T00:35:05;6.20;99.90
26954;DHT22;14508;50.924;11.600;2023-02-04T00:37:32;6.10;99.90
26954;DHT22;14508;50.924;11.600;2023-02-04T00:40:00;6.10;99.90
26954;DHT22;14508;50.924;11.600;2023-02-04T00:42:28;6.00;99.90
26954;DHT22;14508;50.924;11.600;2023-02-04T00:44:57;6.00;99.90
26954;DHT22;14508;50.924;11.600;2023-02-04T00:47:25;5.90;99.90
26954;DHT22;14508;50.924;11.600;2023-02-04T00:49:55;5.90;99.90
26954;DHT22;14508;50.924;11.600;2023-02-04T00:52:24;5.80;99.90
26954;DHT22;14508;50.924;11.600;2023-02-04T00:54:52;5.80;99.90
26954;DHT22;14508;50.924;11.600;2023-02-04T00:57:21;5.70;99.90
26954;DHT22;14508;50.924;11.600;2023-02-04T00:59:48;5.60;99.90
26954;DHT22;14508;50.924;11.600;2023-02-04T01:02:16;5.60;99.90
26954;DHT22;14508;50.924;11.600;2023-02-04T01:04:44;5.60;99.90
26954;DHT22;14508;50.924;11.600;2023-02-04T01:07:12;5.60;99.90
26954;DHT22;14508;50.924;11.600;2023-02-04T01:09:41;5.60;99.90
26954;DHT22;14508;50.924;11.600;2023-02-04T01:12:10;5.60;99.90
26954;DHT22;14508;50.924;11.600;2023-02-04T01:14:38;5.60;99.90
26954;DHT22;14508;50.924;11.600;2023-02-04T01:17:05;5.60;99.90
26954;DHT22;14508;50.924;11.600;2023-02-04T01:19:33;5.60;99.90
26954;DHT22;14508;50.924;11.600;2023-02-04T01:22:01;5.50;99.90
26954;DHT22;14508;50.924;11.600;2023-02-04T01:24:29;5.50;99.90
26954;DHT22;14508;50.924;11.600;2023-02-04T01:27:17;5.50;99.90
26954;DHT22;14508;50.924;11.600;2023-02-04T01:29:45;5.20;99.90
26954;DHT22;14508;50.924;11.600;2023-02-04T01:32:13;4.80;99.90
26954;DHT22;14508;50.924;11.600;2023-02-04T01:34:40;4.40;99.90
26954;DHT22;14508;50.924;11.600;2023-02-04T01:37:08;4.10;99.90
26954;DHT22;14508;50.924;11.600;2023-02-04T01:39:36;3.90;99.90
26954;DHT22;14508;50.924;11.600;2023-02-04T01:42:04;3.70;99.90
26954;DHT22;14508;50.924;11.600;2023-02-04T01:44:34;3.60;99.90
26954;DHT22;14508;50.924;11.600;2023-02-04T01:47:02;3.50;99.90
26954;DHT22;14508;50.924;11.600;2023-02-04T01:49:29;3.50;99.90
26954;DHT22;14508;50.924;11.600;2023-02-04T01:51:58;3.50;99.90
26954;DHT22;14508;50.924;11.600;2023-02-04T01:54:26;3.40;99.90
26954;DHT22;14508;50.924;11.600;2023-02-04T01:56:55;3.40;99.90
26954;DHT22;14508;50.924;11.600;2023-02-04T01:59:24;3.30;99.90
26954;DHT22;14508;50.924;11.600;2023-02-04T02:01:54;3.30;99.90
26954;DHT22;14508;50.924;11.600;2023-02-04T02:04:27;3.30;99.90
26954;DHT22;14508;50.924;11.600;2023-02-04T02:06:57;3.30;99.90
26954;DHT22;14508;50.924;11.600;2023-02-04T02:09:28;3.30;99.90
26954;DHT22;14508;50.924;11.600;2023-02-04T02:11:56;3.40;99.90
26954;DHT22;14508;50.924;11.600;2023-02-04T02:14:25;3.40;99.90
26954;DHT22;14508;50.924;11.600;2023-02-04T02:16:54;3.40;99.90
26954;DHT22;14508;50.924;11.600;2023-02-04T02:19:26;3.50;99.90
26954;DHT22;14508;50.924;11.600;2023-02-04T02:21:59;3.50;99.90
26954;DHT22;14508;50.924;11.600;2023-02-04T02:24:31;3.60;99.90
26954;DHT22;14508;50.924;11.600;2023-02-04T02:27:02;3.60;99.90
26954;DHT22;14508;50.924;11.600;2023-02-04T02:29:33;3.60;99.90
26954;DHT22;14508;50.924;11.600;2023-02-04T02:32:01;3.60;99.90
26954;DHT22;14508;50.924;11.600;2023-02-04T02:34:29;3.60;99.90
26954;DHT22;14508;50.924;11.600;2023-02-04T02:36:58;3.60;99.90
26954;DHT22;14508;50.924;11.600;2023-02-04T02:39:27;3.60;99.90
26954;DHT22;14508;50.924;11.600;2023-02-04T02:41:56;3.60;99.90
26954;DHT22;14508;50.924;11.600;2023-02-04T02:44:27;3.70;99.90
26954;DHT22;14508;50.924;11.600;2023-02-04T02:46:56;3.70;99.90
26954;DHT22;14508;50.924;11.600;2023-02-04T02:49:25;3.70;99.90
26954;DHT22;14508;50.924;11.600;2023-02-04T02:51:54;3.70;99.90
26954;DHT22;14508;50.924;11.600;2023-02-04T02:54:23;3.70;99.90
26954;DHT22;14508;50.924;11.600;2023-02-04T02:56:57;3.70;99.90
26954;DHT22;14508;50.924;11.600;2023-02-04T02:59:26;3.60;99.90
26954;DHT22;14508;50.924;11.600;2023-02-04T03:01:57;3.60;99.90
26954;DHT22;14508;50.924;11.600;2023-02-04T03:04:29;3.60;99.90
26954;DHT22;14508;50.924;11.600;2023-02-04T03:06:59;3.70;99.90
26954;DHT22;14508;50.924;11.600;2023-02-04T03:09:28;3.70;99.90
26954;DHT22;14508;50.924;11.600;2023-02-04T03:11:57;3.70;99.90
26954;DHT22;14508;50.924;11.600;2023-02-04T03:14:26;3.70;99.90
26954;DHT22;14508;50.924;11.600;2023-02-04T03:16:54;3.70;99.90
26954;DHT22;14508;50.924;11.600;2023-02-04T03:19:24;3.70;99.90
26954;DHT22;14508;50.924;11.600;2023-02-04T03:21:53;3.70;99.90
26954;DHT22;14508;50.924;11.600;2023-02-04T03:24:22;3.70;99.90
26954;DHT22;14508;50.924;11.600;2023-02-04T03:26:50;3.70;99.90
26954;DHT22;14508;50.924;11.600;2023-02-04T03:29:20;3.70;99.90
26954;DHT22;14508;50.924;11.600;2023-02-04T03:31:48;3.60;99.90
26954;DHT22;14508;50.924;11.600;2023-02-04T03:34:16;3.60;99.90
26954;DHT22;14508;50.924;11.600;2023-02-04T03:36:44;3.60;99.90
26954;DHT22;14508;50.924;11.600;2023-02-04T03:39:12;3.60;99.90
26954;DHT22;14508;50.924;11.600;2023-02-04T03:41:39;3.60;99.90
26954;DHT22;14508;50.924;11.600;2023-02-04T03:44:07;3.50;99.90
26954;DHT22;14508;50.924;11.600;2023-02-04T03:46:36;3.50;99.90
26954;DHT22;14508;50.924;11.600;2023-02-04T03:49:04;3.50;99.90
26954;DHT22;14508;50.924;11.600;2023-02-04T03:51:32;3.40;99.90
26954;DHT22;14508;50.924;11.600;2023-02-04T03:54:00;3.30;99.90
26954;DHT22;14508;50.924;11.600;2023-02-04T03:56:28;3.20;99.90
26954;DHT22;14508;50.924;11.600;2023-02-04T03:58:56;3.20;99.90
26954;DHT22;14508;50.924;11.600;2023-02-04T04:01:23;3.10;99.90
26954;DHT22;14508;50.924;11.600;2023-02-04T04:03:53;3.10;99.90
26954;DHT22;14508;50.924;11.600;2023-02-04T04:06:21;3.00;99.90
26954;DHT22;14508;50.924;11.600;2023-02-04T04:08:49;2.90;99.90
26954;DHT22;14508;50.924;11.600;2023-02-04T04:11:16;2.90;99.90
26954;DHT22;14508;50.924;11.600;2023-02-04T04:13:44;2.90;99.90
26954;DHT22;14508;50.924;11.600;2023-02-04T04:16:12;2.80;99.90
26954;DHT22;14508;50.924;11.600;2023-02-04T04:18:40;2.80;99.90
26954;DHT22;14508;50.924;11.600;2023-02-04T04:21:09;2.70;99.90
26954;DHT22;14508;50.924;11.600;2023-02-04T04:23:37;2.70;99.90
26954;DHT22;14508;50.924;11.600;2023-02-04T04:26:05;2.60;99.90
26954;DHT22;14508;50.924;11.600;2023-02-04T04:28:33;2.60;99.90
26954;DHT22;14508;50.924;11.600;2023-02-04T04:31:01;2.60;99.90
26954;DHT22;14508;50.924;11.600;2023-02-04T04:33:29;2.50;99.90
26954;DHT22;14508;50.924;11.600;2023-02-04T04:35:56;2.50;99.90
26954;DHT22;14508;50.924;11.600;2023-02-04T04:38:26;2.50;99.90
26954;DHT22;14508;50.924;11.600;2023-02-04T04:40:53;2.50;99.90
26954;DHT22;14508;50.924;11.600;2023-02-04T04:43:21;2.50;99.90
26954;DHT22;14508;50.924;11.600;2023-02-04T04:45:49;2.50;99.90
26954;DHT22;14508;50.924;11.600;2023-02-04T04:48:17;2.50;99.90
26954;DHT22;14508;50.924;11.600;2023-02-04T04:50:47;2.50;99.90
26954;DHT22;14508;50.924;11.600;2023-02-04T04:53:14;2.50;99.90
26954;DHT22;14508;50.924;11.600;2023-02-04T04:55:44;2.40;99.90
26954;DHT22;14508;50.924;11.600;2023-02-04T04:58:11;2.40;99.90
26954;DHT22;14508;50.924;11.600;2023-02-04T05:00:39;2.40;99.90
26954;DHT22;14508;50.924;11.600;2023-02-04T05:03:08;2.50;99.90
26954;DHT22;14508;50.924;11.600;2023-02-04T05:05:36;2.50;99.90
26954;DHT22;14508;50.924;11.600;2023-02-04T05:08:06;2.60;99.90
26954;DHT22;14508;50.924;11.600;2023-02-04T05:10:36;2.60;99.90
26954;DHT22;14508;50.924;11.600;2023-02-04T05:13:05;2.70;99.90
26954;DHT22;14508;50.924;11.600;2023-02-04T05:15:34;2.60;99.90
26954;DHT22;14508;50.924;11.600;2023-02-04T05:18:01;2.70;99.90
26954;DHT22;14508;50.924;11.600;2023-02-04T05:20:29;2.60;99.90
26954;DHT22;14508;50.924;11.600;2023-02-04T05:22:58;2.60;99.90
26954;DHT22;14508;50.924;11.600;2023-02-04T05:25:27;2.60;99.90
26954;DHT22;14508;50.924;11.600;2023-02-04T05:27:54;2.60;99.90
26954;DHT22;14508;50.924;11.600;2023-02-04T05:30:24;2.60;99.90
26954;DHT22;14508;50.924;11.600;2023-02-04T05:32:51;2.50;99.90
26954;DHT22;14508;50.924;11.600;2023-02-04T05:35:19;2.50;99.90
26954;DHT22;14508;50.924;11.600;2023-02-04T05:37:47;2.40;99.90
26954;DHT22;14508;50.924;11.600;2023-02-04T05:40:15;2.30;99.90
26954;DHT22;14508;50.924;11.600;2023-02-04T05:42:43;2.30;99.90
26954;DHT22;14508;50.924;11.600;2023-02-04T05:45:14;2.30;99.90
26954;DHT22;14508;50.924;11.600;2023-02-04T05:47:45;2.20;99.90
26954;DHT22;14508;50.924;11.600;2023-02-04T05:50:13;2.20;99.90
26954;DHT22;14508;50.924;11.600;2023-02-04T05:52:41;2.20;99.90
26954;DHT22;14508;50.924;11.600;2023-02-04T05:55:10;2.10;99.90
26954;DHT22;14508;50.924;11.600;2023-02-04T05:57:38;2.10;99.90
26954;DHT22;14508;50.924;11.600;2023-02-04T06:00:07;2.00;99.90
26954;DHT22;14508;50.924;11.600;2023-02-04T06:02:38;2.00;99.90
26954;DHT22;14508;50.924;11.600;2023-02-04T06:05:08;1.90;99.90
26954;DHT22;14508;50.924;11.600;2023-02-04T06:07:36;1.90;99.90
26954;DHT22;14508;50.924;11.600;2023-02-04T06:10:04;1.80;99.90
26954;DHT22;14508;50.924;11.600;2023-02-04T06:12:32;1.80;99.90
26954;DHT22;14508;50.924;11.600;2023-02-04T06:15:00;1.70;99.90
26954;DHT22;14508;50.924;11.600;2023-02-04T06:17:27;1.70;99.90
26954;DHT22;14508;50.924;11.600;2023-02-04T06:19:55;1.80;99.90
26954;DHT22;14508;50.924;11.600;2023-02-04T06:22:24;1.80;99.90
26954;DHT22;14508;50.924;11.600;2023-02-04T06:24:52;1.90;99.90
26954;DHT22;14508;50.924;11.600;2023-02-04T06:27:21;1.90;99.90
26954;DHT22;14508;50.924;11.600;2023-02-04T06:29:50;1.90;99.90
26954;DHT22;14508;50.924;11.600;2023-02-04T06:32:18;2.00;99.90
26954;DHT22;14508;50.924;11.600;2023-02-04T06:34:46;2.00;99.90
26954;DHT22;14508;50.924;11.600;2023-02-04T06:37:14;2.00;99.90
26954;DHT22;14508;50.924;11.600;2023-02-04T06:39:44;2.10;99.90
26954;DHT22;14508;50.924;11.600;2023-02-04T06:42:11;2.10;99.90
26954;DHT22;14508;50.924;11.600;2023-02-04T06:44:39;2.20;99.90
26954;DHT22;14508;50.924;11.600;2023-02-04T06:47:07;2.20;99.90
26954;DHT22;14508;50.924;11.600;2023-02-04T06:49:35;2.30;99.90
26954;DHT22;14508;50.924;11.600;2023-02-04T06:52:03;2.40;99.90
26954;DHT22;14508;50.924;11.600;2023-02-04T06:54:31;2.40;99.90
26954;DHT22;14508;50.924;11.600;2023-02-04T06:57:01;2.50;99.90
26954;DHT22;14508;50.924;11.600;2023-02-04T06:59:32;2.60;99.90
26954;DHT22;14508;50.924;11.600;2023-02-04T07:02:00;2.70;99.90
26954;DHT22;14508;50.924;11.600;2023-02-04T07:04:28;2.80;99.90
26954;DHT22;14508;50.924;11.600;2023-02-04T07:06:56;2.80;99.90
26954;DHT22;14508;50.924;11.600;2023-02-04T07:09:24;2.90;99.90
26954;DHT22;14508;50.924;11.600;2023-02-04T07:11:51;3.00;99.90
26954;DHT22;14508;50.924;11.600;2023-02-04T07:14:21;3.00;99.90
26954;DHT22;14508;50.924;11.600;2023-02-04T07:16:48;3.00;99.90
26954;DHT22;14508;50.924;11.600;2023-02-04T07:19:16;3.10;99.90
26954;DHT22;14508;50.924;11.600;2023-02-04T07:21:46;3.10;99.90
26954;DHT22;14508;50.924;11.600;2023-02-04T07:24:19;3.20;99.90
26954;DHT22;14508;50.924;11.600;2023-02-04T07:26:47;3.30;99.90
26954;DHT22;14508;50.924;11.600;2023-02-04T07:29:15;3.40;99.90
26954;DHT22;14508;50.924;11.600;2023-02-04T07:31:52;3.40;99.90
26954;DHT22;14508;50.924;11.600;2023-02-04T07:34:20;3.50;99.90
26954;DHT22;14508;50.924;11.600;2023-02-04T07:36:48;3.60;99.90
26954;DHT22;14508;50.924;11.600;2023-02-04T07:39:16;3.60;99.90
26954;DHT22;14508;50.924;11.600;2023-02-04T07:41:44;3.70;99.90
26954;DHT22;14508;50.924;11.600;2023-02-04T07:44:15;3.70;99.90
26954;DHT22;14508;50.924;11.600;2023-02-04T07:46:43;3.70;99.90
26954;DHT22;14508;50.924;11.600;2023-02-04T07:49:12;3.60;99.90
26954;DHT22;14508;50.924;11.600;2023-02-04T07:51:41;3.60;99.90
26954;DHT22;14508;50.924;11.600;2023-02-04T07:54:09;3.60;99.90
26954;DHT22;14508;50.924;11.600;2023-02-04T07:56:37;3.60;99.90
26954;DHT22;14508;50.924;11.600;2023-02-04T07:59:05;3.60;99.90
26954;DHT22;14508;50.924;11.600;2023-02-04T08:01:33;3.60;99.90
26954;DHT22;14508;50.924;11.600;2023-02-04T08:04:01;3.60;99.90
26954;DHT22;14508;50.924;11.600;2023-02-04T08:06:30;3.60;99.90
26954;DHT22;14508;50.924;11.600;2023-02-04T08:08:58;3.60;99.90
26954;DHT22;14508;50.924;11.600;2023-02-04T08:11:26;3.70;99.90
26954;DHT22;14508;50.924;11.600;2023-02-04T08:13:54;3.70;99.90
26954;DHT22;14508;50.924;11.600;2023-02-04T08:16:22;3.70;99.90
26954;DHT22;14508;50.924;11.600;2023-02-04T08:18:50;3.80;99.90
26954;DHT22;14508;50.924;11.600;2023-02-04T08:21:17;3.80;99.90
26954;DHT22;14508;50.924;11.600;2023-02-04T08:23:47;3.80;99.90
26954;DHT22;14508;50.924;11.600;2023-02-04T08:26:16;3.80;99.90
26954;DHT22;14508;50.924;11.600;2023-02-04T08:28:47;3.90;99.90
26954;DHT22;14508;50.924;11.600;2023-02-04T08:31:20;3.90;99.90
26954;DHT22;14508;50.924;11.600;2023-02-04T08:33:50;4.00;99.90
26954;DHT22;14508;50.924;11.600;2023-02-04T08:36:19;4.00;99.90
26954;DHT22;14508;50.924;11.600;2023-02-04T08:38:48;4.10;99.90
26954;DHT22;14508;50.924;11.600;2023-02-04T08:41:16;4.10;99.90
26954;DHT22;14508;50.924;11.600;2023-02-04T08:43:44;4.20;99.90
26954;DHT22;14508;50.924;11.600;2023-02-04T08:46:12;4.30;99.90
26954;DHT22;14508;50.924;11.600;2023-02-04T08:48:40;4.40;99.90
26954;DHT22;14508;50.924;11.600;2023-02-04T08:51:09;4.50;99.90
26954;DHT22;14508;50.924;11.600;2023-02-04T08:53:37;4.60;99.90
26954;DHT22;14508;50.924;11.600;2023-02-04T08:56:08;4.60;99.90
26954;DHT22;14508;50.924;11.600;2023-02-04T08:58:36;4.70;99.90
26954;DHT22;14508;50.924;11.600;2023-02-04T09:01:05;4.70;99.90
26954;DHT22;14508;50.924;11.600;2023-02-04T09:03:33;4.60;99.90
26954;DHT22;14508;50.924;11.600;2023-02-04T09:06:01;4.60;99.90
26954;DHT22;14508;50.924;11.600;2023-02-04T09:08:29;4.50;99.90
26954;DHT22;14508;50.924;11.600;2023-02-04T09:10:57;4.60;99.90
26954;DHT22;14508;50.924;11.600;2023-02-04T09:13:27;4.50;99.90
26954;DHT22;14508;50.924;11.600;2023-02-04T09:15:55;4.60;99.90
26954;DHT22;14508;50.924;11.600;2023-02-04T09:18:23;4.70;99.90
26954;DHT22;14508;50.924;11.600;2023-02-04T09:20:54;4.80;99.90
26954;DHT22;14508;50.924;11.600;2023-02-04T09:23:22;4.80;99.90
26954;DHT22;14508;50.924;11.600;2023-02-04T09:25:51;4.80;99.90
26954;DHT22;14508;50.924;11.600;2023-02-04T09:28:20;4.70;99.90
26954;DHT22;14508;50.924;11.600;2023-02-04T09:30:53;4.70;99.90
26954;DHT22;14508;50.924;11.600;2023-02-04T09:33:31;4.80;99.90
26954;DHT22;14508;50.924;11.600;2023-02-04T09:36:04;4.90;99.90
26954;DHT22;14508;50.924;11.600;2023-02-04T09:38:36;5.10;99.90
26954;DHT22;14508;50.924;11.600;2023-02-04T09:41:07;5.20;99.90
26954;DHT22;14508;50.924;11.600;2023-02-04T09:43:38;5.30;99.90
26954;DHT22;14508;50.924;11.600;2023-02-04T09:46:15;5.50;99.90
26954;DHT22;14508;50.924;11.600;2023-02-04T09:48:45;5.60;99.90
26954;DHT22;14508;50.924;11.600;2023-02-04T09:51:15;5.60;99.90
26954;DHT22;14508;50.924;11.600;2023-02-04T09:53:44;5.40;99.90
26954;DHT22;14508;50.924;11.600;2023-02-04T09:56:13;5.20;99.90
26954;DHT22;14508;50.924;11.600;2023-02-04T09:58:41;5.10;99.90
26954;DHT22;14508;50.924;11.600;2023-02-04T10:01:14;5.00;99.90
26954;DHT22;14508;50.924;11.600;2023-02-04T10:03:44;5.00;99.90
26954;DHT22;14508;50.924;11.600;2023-02-04T10:06:13;5.00;99.90
26954;DHT22;14508;50.924;11.600;2023-02-04T10:08:44;5.00;99.90
26954;DHT22;14508;50.924;11.600;2023-02-04T10:11:14;4.90;99.90
26954;DHT22;14508;50.924;11.600;2023-02-04T10:13:45;5.00;99.90
26954;DHT22;14508;50.924;11.600;2023-02-04T10:16:19;5.20;99.90
26954;DHT22;14508;50.924;11.600;2023-02-04T10:18:48;5.30;99.90
26954;DHT22;14508;50.924;11.600;2023-02-04T10:21:18;5.30;99.90
26954;DHT22;14508;50.924;11.600;2023-02-04T10:23:49;5.40;99.90
26954;DHT22;14508;50.924;11.600;2023-02-04T10:26:25;5.40;99.90
26954;DHT22;14508;50.924;11.600;2023-02-04T10:28:58;5.50;99.90
26954;DHT22;14508;50.924;11.600;2023-02-04T10:31:33;5.50;99.90
26954;DHT22;14508;50.924;11.600;2023-02-04T10:34:20;5.60;99.90
26954;DHT22;14508;50.924;11.600;2023-02-04T10:36:49;5.50;99.90
26954;DHT22;14508;50.924;11.600;2023-02-04T10:39:21;5.60;99.90
26954;DHT22;14508;50.924;11.600;2023-02-04T10:41:51;5.70;99.90
26954;DHT22;14508;50.924;11.600;2023-02-04T10:44:25;5.70;99.90
26954;DHT22;14508;50.924;11.600;2023-02-04T10:47:02;5.80;99.90
26954;DHT22;14508;50.924;11.600;2023-02-04T10:49:31;6.00;99.90
26954;DHT22;14508;50.924;11.600;2023-02-04T10:52:00;6.10;99.70
26954;DHT22;14508;50.924;11.600;2023-02-04T10:54:36;6.10;98.30
26954;DHT22;14508;50.924;11.600;2023-02-04T10:57:10;6.10;97.40
26954;DHT22;14508;50.924;11.600;2023-02-04T10:59:41;6.10;96.10
26954;DHT22;14508;50.924;11.600;2023-02-04T11:02:38;6.30;96.70
26954;DHT22;14508;50.924;11.600;2023-02-04T11:05:11;6.50;95.70
26954;DHT22;14508;50.924;11.600;2023-02-04T11:07:39;6.60;93.00
26954;DHT22;14508;50.924;11.600;2023-02-04T11:10:12;6.80;91.00
26954;DHT22;14508;50.924;11.600;2023-02-04T11:12:42;6.90;90.30
26954;DHT22;14508;50.924;11.600;2023-02-04T11:15:40;6.90;89.30
26954;DHT22;14508;50.924;11.600;2023-02-04T11:18:23;7.00;87.10
26954;DHT22;14508;50.924;11.600;2023-02-04T11:20:55;7.10;86.00
26954;DHT22;14508;50.924;11.600;2023-02-04T11:23:35;7.00;76.20
26954;DHT22;14508;50.924;11.600;2023-02-04T11:26:06;6.70;76.40
26954;DHT22;14508;50.924;11.600;2023-02-04T11:28:47;6.60;78.30
26954;DHT22;14508;50.924;11.600;2023-02-04T11:31:40;6.50;78.30
26954;DHT22;14508;50.924;11.600;2023-02-04T11:34:24;6.50;78.90
26954;DHT22;14508;50.924;11.600;2023-02-04T11:37:15;6.60;79.40
26954;DHT22;14508;50.924;11.600;2023-02-04T11:39:44;6.40;80.90
26954;DHT22;14508;50.924;11.600;2023-02-04T11:42:19;6.40;81.70
26954;DHT22;14508;50.924;11.600;2023-02-04T11:44:51;6.40;82.20
26954;DHT22;14508;50.924;11.600;2023-02-04T11:47:21;6.50;84.60
26954;DHT22;14508;50.924;11.600;2023-02-04T11:49:55;6.50;85.40
26954;DHT22;14508;50.924;11.600;2023-02-04T11:52:24;6.60;85.40
26954;DHT22;14508;50.924;11.600;2023-02-04T11:54:53;6.60;85.20
26954;DHT22;14508;50.924;11.600;2023-02-04T11:57:21;6.50;84.20
26954;DHT22;14508;50.924;11.600;2023-02-04T11:59:49;6.40;83.50
26954;DHT22;14508;50.924;11.600;2023-02-04T12:02:18;6.20;82.30
26954;DHT22;14508;50.924;11.600;2023-02-04T12:04:55;6.10;81.20
26954;DHT22;14508;50.924;11.600;2023-02-04T12:07:26;6.10;79.00
26954;DHT22;14508;50.924;11.600;2023-02-04T12:09:54;6.20;78.80
26954;DHT22;14508;50.924;11.600;2023-02-04T12:12:25;6.50;79.40
26954;DHT22;14508;50.924;11.600;2023-02-04T12:14:57;6.70;78.80
26954;DHT22;14508;50.924;11.600;2023-02-04T12:17:28;7.10;76.70
26954;DHT22;14508;50.924;11.600;2023-02-04T12:19:57;7.40;75.00
26954;DHT22;14508;50.924;11.600;2023-02-04T12:22:25;7.70;68.70
26954;DHT22;14508;50.924;11.600;2023-02-04T12:24:53;7.90;64.00
26954;DHT22;14508;50.924;11.600;2023-02-04T12:27:21;7.90;64.60
26954;DHT22;14508;50.924;11.600;2023-02-04T12:29:48;7.90;63.10
26954;DHT22;14508;50.924;11.600;2023-02-04T12:32:16;8.00;62.90
26954;DHT22;14508;50.924;11.600;2023-02-04T12:34:44;8.00;63.90
26954;DHT22;14508;50.924;11.600;2023-02-04T12:37:13;7.90;63.00
26954;DHT22;14508;50.924;11.600;2023-02-04T12:39:41;7.60;64.60
26954;DHT22;14508;50.924;11.600;2023-02-04T12:42:09;7.40;66.80
26954;DHT22;14508;50.924;11.600;2023-02-04T12:44:36;7.20;68.00
26954;DHT22;14508;50.924;11.600;2023-02-04T12:47:04;7.10;69.90
26954;DHT22;14508;50.924;11.600;2023-02-04T12:49:32;6.90;68.40
26954;DHT22;14508;50.924;11.600;2023-02-04T12:52:00;6.70;68.00
26954;DHT22;14508;50.924;11.600;2023-02-04T12:54:30;6.50;69.30
26954;DHT22;14508;50.924;11.600;2023-02-04T12:56:57;6.30;69.20
26954;DHT22;14508;50.924;11.600;2023-02-04T12:59:25;6.20;70.40
26954;DHT22;14508;50.924;11.600;2023-02-04T13:01:53;6.30;71.70
26954;DHT22;14508;50.924;11.600;2023-02-04T13:04:21;6.30;72.50
26954;DHT22;14508;50.924;11.600;2023-02-04T13:06:49;6.30;73.40
26954;DHT22;14508;50.924;11.600;2023-02-04T13:09:17;6.40;73.20
26954;DHT22;14508;50.924;11.600;2023-02-04T13:11:46;6.40;72.00
26954;DHT22;14508;50.924;11.600;2023-02-04T13:14:14;6.40;71.80
26954;DHT22;14508;50.924;11.600;2023-02-04T13:16:42;6.40;71.90
26954;DHT22;14508;50.924;11.600;2023-02-04T13:19:10;6.40;71.40
26954;DHT22;14508;50.924;11.600;2023-02-04T13:21:37;6.40;70.80
26954;DHT22;14508;50.924;11.600;2023-02-04T13:24:08;6.50;69.10
26954;DHT22;14508;50.924;11.600;2023-02-04T13:26:36;6.50;69.40
26954;DHT22;14508;50.924;11.600;2023-02-04T13:29:05;6.60;69.20
26954;DHT22;14508;50.924;11.600;2023-02-04T13:31:33;6.60;68.10
26954;DHT22;14508;50.924;11.600;2023-02-04T13:34:01;6.70;68.20
26954;DHT22;14508;50.924;11.600;2023-02-04T13:36:29;7.00;67.60
26954;DHT22;14508;50.924;11.600;2023-02-04T13:38:56;7.10;66.40
26954;DHT22;14508;50.924;11.600;2023-02-04T13:41:26;7.20;67.00
26954;DHT22;14508;50.924;11.600;2023-02-04T13:43:53;7.30;64.40
26954;DHT22;14508;50.924;11.600;2023-02-04T13:46:23;7.30;63.40
26954;DHT22;14508;50.924;11.600;2023-02-04T13:48:51;7.30;62.80
26954;DHT22;14508;50.924;11.600;2023-02-04T13:51:19;7.30;61.10
26954;DHT22;14508;50.924;11.600;2023-02-04T13:53:46;7.40;60.00
26954;DHT22;14508;50.924;11.600;2023-02-04T13:56:14;7.40;59.60
26954;DHT22;14508;50.924;11.600;2023-02-04T13:58:42;7.40;59.50
26954;DHT22;14508;50.924;11.600;2023-02-04T14:01:11;7.50;59.20
26954;DHT22;14508;50.924;11.600;2023-02-04T14:03:40;7.50;58.90
26954;DHT22;14508;50.924;11.600;2023-02-04T14:06:10;7.40;59.50
26954;DHT22;14508;50.924;11.600;2023-02-04T14:08:38;7.20;59.60
26954;DHT22;14508;50.924;11.600;2023-02-04T14:11:06;7.10;60.60
26954;DHT22;14508;50.924;11.600;2023-02-04T14:13:34;7.00;61.90
26954;DHT22;14508;50.924;11.600;2023-02-04T14:16:02;6.80;62.90
26954;DHT22;14508;50.924;11.600;2023-02-04T14:18:31;6.60;65.00
26954;DHT22;14508;50.924;11.600;2023-02-04T14:21:00;6.40;66.60
26954;DHT22;14508;50.924;11.600;2023-02-04T14:23:27;6.40;67.90
26954;DHT22;14508;50.924;11.600;2023-02-04T14:25:55;6.30;68.40
26954;DHT22;14508;50.924;11.600;2023-02-04T14:28:23;6.20;69.10
26954;DHT22;14508;50.924;11.600;2023-02-04T14:30:51;6.10;69.90
26954;DHT22;14508;50.924;11.600;2023-02-04T14:33:21;6.00;70.60
26954;DHT22;14508;50.924;11.600;2023-02-04T14:35:49;5.90;70.50
26954;DHT22;14508;50.924;11.600;2023-02-04T14:38:18;5.80;70.70
26954;DHT22;14508;50.924;11.600;2023-02-04T14:40:46;5.80;69.30
26954;DHT22;14508;50.924;11.600;2023-02-04T14:43:13;5.60;68.80
26954;DHT22;14508;50.924;11.600;2023-02-04T14:45:41;5.70;70.50
26954;DHT22;14508;50.924;11.600;2023-02-04T14:48:09;5.70;71.10
26954;DHT22;14508;50.924;11.600;2023-02-04T14:50:37;5.80;71.10
26954;DHT22;14508;50.924;11.600;2023-02-04T14:53:05;5.90;70.60
26954;DHT22;14508;50.924;11.600;2023-02-04T14:55:35;5.90;69.90
26954;DHT22;14508;50.924;11.600;2023-02-04T14:58:03;5.90;70.10
26954;DHT22;14508;50.924;11.600;2023-02-04T15:00:30;6.00;70.40
26954;DHT22;14508;50.924;11.600;2023-02-04T15:02:59;6.10;70.20
26954;DHT22;14508;50.924;11.600;2023-02-04T15:05:27;6.00;69.60
26954;DHT22;14508;50.924;11.600;2023-02-04T15:07:55;6.00;69.70
26954;DHT22;14508;50.924;11.600;2023-02-04T15:10:22;6.00;69.50
26954;DHT22;14508;50.924;11.600;2023-02-04T15:12:52;5.90;70.50
26954;DHT22;14508;50.924;11.600;2023-02-04T15:15:21;5.90;70.50
26954;DHT22;14508;50.924;11.600;2023-02-04T15:17:49;5.90;70.80
26954;DHT22;14508;50.924;11.600;2023-02-04T15:20:17;5.80;70.50
26954;DHT22;14508;50.924;11.600;2023-02-04T15:22:45;5.80;69.70
26954;DHT22;14508;50.924;11.600;2023-02-04T15:25:17;5.70;69.20
26954;DHT22;14508;50.924;11.600;2023-02-04T15:27:45;5.70;70.00
26954;DHT22;14508;50.924;11.600;2023-02-04T15:30:15;5.70;70.10
26954;DHT22;14508;50.924;11.600;2023-02-04T15:32:43;5.70;69.90
26954;DHT22;14508;50.924;11.600;2023-02-04T15:35:12;5.70;69.90
26954;DHT22;14508;50.924;11.600;2023-02-04T15:37:40;5.60;70.20
26954;DHT22;14508;50.924;11.600;2023-02-04T15:40:09;5.50;71.30
26954;DHT22;14508;50.924;11.600;2023-02-04T15:42:39;5.40;71.90